createdAt,value
2019-03-13T00:01:42.913Z,66.39
2019-03-13T00:04:12.343Z,66.55
2019-03-13T00:06:41.727Z,64.68
2019-03-13T00:09:12.140Z,65.97
2019-03-13T00:11:41.886Z,66.76
2019-03-13T00:14:11.264Z,67.98
2019-03-13T00:16:40.673Z,68.38
2019-03-13T00:19:10.100Z,67.09
2019-03-13T00:21:39.478Z,66.12
2019-03-13T00:24:08.842Z,67.71
2019-03-13T00:26:38.229Z,67.26
2019-03-13T00:29:07.615Z,68.00
2019-03-13T00:31:36.975Z,67.57
2019-03-13T00:34:06.478Z,67.69
2019-03-13T00:36:35.916Z,66.58
2019-03-13T00:39:06.779Z,67.92
2019-03-13T00:41:36.177Z,69.28
2019-03-13T00:44:05.548Z,68.58
2019-03-13T00:46:34.947Z,68.70
2019-03-13T00:49:04.365Z,67.60
2019-03-13T00:51:36.809Z,68.07
2019-03-13T00:54:04.779Z,66.61
2019-03-13T00:56:34.179Z,67.92
2019-03-13T00:59:03.606Z,69.18
2019-03-13T01:01:51.996Z,67.64
2019-03-13T01:04:25.588Z,66.16
2019-03-13T01:07:01.122Z,67.00
2019-03-13T01:09:30.501Z,66.59
2019-03-13T01:11:59.866Z,64.93
2019-03-13T01:14:29.320Z,64.72
2019-03-13T01:16:58.690Z,67.72
2019-03-13T01:19:28.060Z,67.35
2019-03-13T01:21:57.507Z,66.93
2019-03-13T01:24:26.874Z,66.29
2019-03-13T01:26:56.293Z,67.44
2019-03-13T01:29:25.681Z,66.42
2019-03-13T01:32:17.377Z,67.97
2019-03-13T01:35:11.803Z,67.29
2019-03-13T01:37:41.141Z,66.43
2019-03-13T01:40:11.900Z,66.84
2019-03-13T01:42:41.270Z,66.00
2019-03-13T01:45:11.095Z,66.83
2019-03-13T01:47:40.497Z,66.02
2019-03-13T01:50:10.195Z,65.66
2019-03-13T01:52:39.674Z,64.32
2019-03-13T01:55:09.382Z,64.23
2019-03-13T01:57:38.758Z,64.57
2019-03-13T02:00:09.746Z,65.20
2019-03-13T02:02:39.215Z,65.34
2019-03-13T02:05:08.838Z,65.48
2019-03-13T02:07:38.215Z,65.98
2019-03-13T02:10:08.768Z,64.80
2019-03-13T02:12:38.430Z,65.72
2019-03-13T02:15:08.857Z,65.89
2019-03-13T02:17:38.223Z,65.89
2019-03-13T02:20:08.260Z,65.41
2019-03-13T02:22:37.977Z,64.50
2019-03-13T02:25:07.800Z,64.69
2019-03-13T02:27:37.163Z,65.80
2019-03-13T02:30:07.406Z,65.70
2019-03-13T02:32:36.895Z,64.96
2019-03-13T02:35:06.561Z,63.67
2019-03-13T02:37:35.965Z,63.90
2019-03-13T02:40:06.530Z,63.67
2019-03-13T02:42:35.931Z,64.06
2019-03-13T02:45:05.957Z,64.76
2019-03-13T02:47:35.378Z,64.14
2019-03-13T02:50:05.243Z,64.56
2019-03-13T02:52:34.599Z,65.83
2019-03-13T02:55:04.009Z,64.23
2019-03-13T02:57:33.408Z,64.19
2019-03-13T03:00:02.908Z,65.79
2019-03-13T03:02:36.992Z,64.72
2019-03-13T03:05:06.733Z,65.54
2019-03-13T03:07:36.123Z,65.79
2019-03-13T03:10:05.869Z,65.41
2019-03-13T03:12:35.272Z,65.00
2019-03-13T03:15:13.249Z,65.62
2019-03-13T03:17:42.652Z,65.98
2019-03-13T03:20:14.325Z,69.70
2019-03-13T03:22:43.940Z,72.33
2019-03-13T03:25:13.824Z,72.32
2019-03-13T03:27:43.191Z,72.53
2019-03-13T03:30:15.833Z,72.66
2019-03-13T03:32:45.283Z,72.24
2019-03-13T03:35:14.640Z,73.21
2019-03-13T03:37:44.122Z,73.11
2019-03-13T03:40:14.517Z,73.80
2019-03-13T03:42:44.123Z,74.49
2019-03-13T03:45:13.506Z,74.29
2019-03-13T03:47:42.969Z,74.75
2019-03-13T03:50:12.541Z,73.54
2019-03-13T03:52:42.128Z,73.00
2019-03-13T03:55:11.928Z,72.48
2019-03-13T03:57:41.308Z,72.39
2019-03-13T04:00:10.941Z,73.51
2019-03-13T04:02:40.362Z,74.09
2019-03-13T04:05:10.660Z,73.44
2019-03-13T04:07:40.082Z,73.09
2019-03-13T04:10:09.615Z,72.82
2019-03-13T04:12:39.185Z,71.13
2019-03-13T04:15:08.629Z,70.07
2019-03-13T04:17:37.997Z,70.25
2019-03-13T04:20:07.512Z,70.30
2019-03-13T04:22:36.926Z,70.92
2019-03-13T04:25:32.330Z,70.44
2019-03-13T04:28:01.949Z,70.04
2019-03-13T04:30:31.320Z,70.91
2019-03-13T04:33:00.863Z,70.83
2019-03-13T04:35:30.236Z,70.48
2019-03-13T04:37:59.609Z,70.98
2019-03-13T04:40:29.034Z,70.26
2019-03-13T04:42:58.397Z,69.53
2019-03-13T04:45:27.799Z,69.12
2019-03-13T04:47:57.241Z,69.75
2019-03-13T04:50:26.753Z,70.31
2019-03-13T04:52:56.149Z,70.18
2019-03-13T04:55:25.518Z,69.75
2019-03-13T04:57:54.925Z,69.82
2019-03-13T05:00:24.327Z,69.67
2019-03-13T05:02:53.716Z,70.32
2019-03-13T05:05:55.358Z,70.20
2019-03-13T05:08:45.057Z,70.08
2019-03-13T05:11:07.945Z,70.55
2019-03-13T05:13:37.590Z,70.80
2019-03-13T05:16:06.920Z,69.89
2019-03-13T05:18:36.714Z,69.87
2019-03-13T05:21:06.079Z,70.22
2019-03-13T05:23:35.517Z,69.93
2019-03-13T05:26:04.890Z,70.03
2019-03-13T05:28:34.465Z,69.53
2019-03-13T05:31:03.998Z,68.71
2019-03-13T05:33:33.493Z,67.86
2019-03-13T05:36:02.957Z,68.10
2019-03-13T05:38:32.494Z,67.90
2019-03-13T05:41:07.655Z,68.40
2019-03-13T05:43:37.996Z,68.87
2019-03-13T05:46:08.168Z,68.42
2019-03-13T05:48:37.965Z,67.91
2019-03-13T05:51:07.660Z,66.80
2019-03-13T05:53:38.154Z,66.41
2019-03-13T05:56:08.096Z,66.57
2019-03-13T05:58:37.685Z,64.58
2019-03-13T06:01:07.062Z,63.70
2019-03-13T06:03:36.414Z,63.15
2019-03-13T06:06:05.846Z,63.16
2019-03-13T06:08:35.438Z,62.45
2019-03-13T06:11:05.013Z,61.62
2019-03-13T06:13:36.398Z,63.16
2019-03-13T06:16:05.822Z,63.15
2019-03-13T06:18:35.311Z,62.88
2019-03-13T06:21:04.663Z,63.74
2019-03-13T06:23:34.064Z,63.22
2019-03-13T06:26:03.568Z,63.39
2019-03-13T06:28:32.919Z,62.55
2019-03-13T06:31:02.304Z,63.04
2019-03-13T06:33:31.735Z,62.92
2019-03-13T06:36:01.098Z,62.91
2019-03-13T06:38:30.438Z,63.79
2019-03-13T06:40:59.841Z,62.78
2019-03-13T06:43:29.209Z,63.30
2019-03-13T06:45:58.669Z,63.79
2019-03-13T06:48:28.045Z,64.39
2019-03-13T06:50:57.499Z,64.05
2019-03-13T06:53:26.857Z,64.43
2019-03-13T06:55:56.259Z,64.74
2019-03-13T06:58:34.480Z,63.92
2019-03-13T07:01:21.237Z,63.85
2019-03-13T07:04:09.681Z,63.79
2019-03-13T07:06:56.823Z,64.06
2019-03-13T07:09:48.179Z,63.40
2019-03-13T07:12:35.221Z,63.00
2019-03-13T07:15:13.888Z,62.93
2019-03-13T07:17:59.904Z,63.30
2019-03-13T07:20:44.059Z,62.25
2019-03-13T07:23:24.686Z,62.90
2019-03-13T07:26:19.208Z,62.48
2019-03-13T07:29:13.401Z,61.94
2019-03-13T07:32:04.604Z,62.53
2019-03-13T07:35:10.829Z,62.44
2019-03-13T07:37:59.898Z,60.71
2019-03-13T07:40:47.390Z,60.56
2019-03-13T07:43:25.706Z,59.97
2019-03-13T07:46:11.592Z,58.73
2019-03-13T07:49:02.714Z,58.66
2019-03-13T07:51:38.446Z,57.87
2019-03-13T07:54:23.118Z,56.44
2019-03-13T07:57:15.011Z,55.35
2019-03-13T08:00:15.547Z,55.88
2019-03-13T08:03:02.590Z,55.07
2019-03-13T08:05:50.987Z,55.28
2019-03-13T08:08:36.856Z,54.74
2019-03-13T08:11:21.050Z,54.57
2019-03-13T08:14:09.333Z,54.05
2019-03-13T08:17:00.443Z,53.93
2019-03-13T08:19:51.778Z,53.79
2019-03-13T08:22:36.392Z,53.85
2019-03-13T08:25:30.832Z,53.87
2019-03-13T08:28:19.105Z,53.91
2019-03-13T08:31:13.705Z,53.00
2019-03-13T08:34:12.544Z,54.11
2019-03-13T08:37:15.962Z,54.09
2019-03-13T08:40:10.746Z,53.97
2019-03-13T08:42:53.648Z,53.84
2019-03-13T08:46:00.124Z,53.39
2019-03-13T08:48:43.230Z,51.91
2019-03-13T08:51:49.662Z,51.91
2019-03-13T08:54:28.166Z,51.77
2019-03-13T08:57:14.883Z,51.64
2019-03-13T08:59:51.354Z,51.64
2019-03-13T09:02:39.869Z,50.92
2019-03-13T09:05:43.272Z,50.92
2019-03-13T09:08:52.216Z,50.69
2019-03-13T09:11:34.756Z,49.66
2019-03-13T09:14:21.514Z,51.00
2019-03-13T09:17:13.953Z,51.00
2019-03-13T09:20:11.279Z,51.16
2019-03-13T09:23:02.517Z,50.46
2019-03-13T09:25:46.940Z,45.64
2019-03-13T09:28:35.280Z,45.64
2019-03-13T09:31:25.554Z,44.32
2019-03-13T09:34:19.743Z,43.76
2019-03-13T09:37:08.349Z,42.02
2019-03-13T09:40:00.715Z,40.86
2019-03-13T09:42:52.281Z,38.94
2019-03-13T09:45:40.846Z,37.24
2019-03-13T09:48:33.137Z,35.77
2019-03-13T09:51:24.525Z,34.30
2019-03-13T09:54:21.949Z,34.54
2019-03-13T09:57:10.293Z,34.40
2019-03-13T09:59:47.343Z,35.04
2019-03-13T10:02:25.411Z,34.87
2019-03-13T10:05:12.340Z,36.11
2019-03-13T10:08:03.339Z,38.30
2019-03-13T10:10:57.302Z,40.75
2019-03-13T10:13:43.829Z,41.57
2019-03-13T10:16:30.603Z,41.96
2019-03-13T10:19:19.638Z,43.12
2019-03-13T10:21:59.587Z,44.56
2019-03-13T10:24:57.939Z,45.79
2019-03-13T10:28:04.477Z,46.02
2019-03-13T10:30:55.553Z,45.90
2019-03-13T10:33:47.156Z,46.14
2019-03-13T10:36:53.581Z,47.45
2019-03-13T10:39:33.497Z,48.20
2019-03-13T10:42:20.206Z,49.97
2019-03-13T10:45:07.016Z,49.33
2019-03-13T10:47:58.326Z,49.06
2019-03-13T10:50:43.608Z,48.02
2019-03-13T10:53:35.045Z,47.41
2019-03-13T10:56:22.255Z,46.77
2019-03-13T10:59:01.687Z,46.94
2019-03-13T11:01:40.577Z,47.54
2019-03-13T11:04:15.623Z,46.98
2019-03-13T11:06:55.258Z,47.01
2019-03-13T11:09:48.779Z,48.01
2019-03-13T11:12:24.092Z,48.72
2019-03-13T11:15:15.472Z,49.43
2019-03-13T11:18:09.824Z,48.70
2019-03-13T11:20:56.719Z,48.09
2019-03-13T11:23:47.789Z,47.70
2019-03-13T11:26:39.327Z,48.85
2019-03-13T11:29:27.720Z,49.67
2019-03-13T11:32:20.850Z,50.11
2019-03-13T11:35:13.888Z,49.75
2019-03-13T11:37:54.643Z,48.87
2019-03-13T11:40:40.941Z,48.53
2019-03-13T11:43:26.942Z,48.60
2019-03-13T11:46:33.360Z,49.05
2019-03-13T11:49:20.500Z,49.92
2019-03-13T11:52:07.294Z,50.85
2019-03-13T11:54:54.170Z,52.14
2019-03-13T11:57:32.455Z,53.43
2019-03-13T12:00:10.422Z,54.49
2019-03-13T12:03:00.371Z,54.49
2019-03-13T12:05:48.653Z,54.98
2019-03-13T12:08:45.260Z,55.53
2019-03-13T12:11:33.502Z,55.57
2019-03-13T12:14:22.442Z,55.77
2019-03-13T12:17:11.678Z,55.78
2019-03-13T12:19:56.515Z,55.75
2019-03-13T12:22:35.339Z,56.56
2019-03-13T12:25:22.153Z,57.41
2019-03-13T12:28:10.411Z,56.49
2019-03-13T12:30:54.375Z,56.49
2019-03-13T12:33:45.754Z,57.15
2019-03-13T12:36:34.106Z,57.30
2019-03-13T12:39:11.628Z,56.27
2019-03-13T12:42:06.044Z,55.96
2019-03-13T12:45:00.515Z,56.35
2019-03-13T12:47:55.007Z,57.69
2019-03-13T12:50:34.199Z,57.58
2019-03-13T12:53:20.865Z,58.42
2019-03-13T12:56:14.745Z,58.55
2019-03-13T12:59:01.930Z,59.64
2019-03-13T13:01:50.237Z,60.65
2019-03-13T13:04:32.916Z,60.20
2019-03-13T13:07:21.235Z,61.28
2019-03-13T13:10:04.121Z,61.28
2019-03-13T13:12:52.481Z,60.46
2019-03-13T13:15:37.468Z,60.46
2019-03-13T13:18:23.243Z,61.84
2019-03-13T13:20:52.861Z,61.84
2019-03-13T13:23:22.535Z,62.05
2019-03-13T13:25:51.951Z,62.05
2019-03-13T13:28:21.411Z,63.13
2019-03-13T13:30:50.830Z,62.83
2019-03-13T13:33:20.226Z,63.36
2019-03-13T13:35:49.643Z,64.14
2019-03-13T13:38:19.003Z,63.94
2019-03-13T13:40:48.726Z,63.94
2019-03-13T13:43:18.052Z,63.96
2019-03-13T13:45:50.652Z,63.85
2019-03-13T13:48:20.040Z,63.76
2019-03-13T13:50:49.441Z,64.13
2019-03-13T13:53:18.841Z,63.96
2019-03-13T13:55:48.393Z,63.71
2019-03-13T13:58:17.795Z,63.80
2019-03-13T14:00:47.194Z,63.20
2019-03-13T14:03:16.507Z,64.19
2019-03-13T14:05:45.916Z,63.68
2019-03-13T14:08:15.451Z,63.47
2019-03-13T14:10:45.095Z,63.47
2019-03-13T14:13:14.822Z,63.21
2019-03-13T14:15:44.202Z,63.06
2019-03-13T14:18:13.676Z,63.52
2019-03-13T14:20:43.067Z,63.52
2019-03-13T14:23:12.431Z,64.36
2019-03-13T14:25:41.891Z,64.53
2019-03-13T14:28:11.302Z,64.53
2019-03-13T14:30:40.673Z,63.94
2019-03-13T14:33:10.158Z,63.82
2019-03-13T14:35:39.722Z,63.82
2019-03-13T14:38:09.449Z,63.30
2019-03-13T14:40:39.369Z,63.46
2019-03-13T14:43:08.963Z,63.96
2019-03-13T14:45:38.348Z,64.23
2019-03-13T14:48:07.797Z,64.90
2019-03-13T14:50:37.202Z,65.11
2019-03-13T14:53:07.055Z,65.15
2019-03-13T14:55:36.604Z,65.64
2019-03-13T14:58:06.098Z,65.64
2019-03-13T15:00:35.871Z,66.03
2019-03-13T15:03:05.378Z,65.74
2019-03-13T15:05:34.961Z,65.94
2019-03-13T15:08:04.351Z,66.12
2019-03-13T15:10:33.869Z,66.55
2019-03-13T15:13:03.314Z,66.53
2019-03-13T15:15:32.636Z,65.89
2019-03-13T15:18:01.999Z,67.21
2019-03-13T15:20:31.608Z,67.67
2019-03-13T15:23:01.062Z,67.40
2019-03-13T15:25:30.482Z,67.18
2019-03-13T15:28:00.062Z,67.37
2019-03-13T15:30:29.469Z,68.42
2019-03-13T15:32:58.832Z,68.46
2019-03-13T15:35:28.277Z,68.89
2019-03-13T15:37:57.892Z,69.12
2019-03-13T15:40:27.372Z,68.82
2019-03-13T15:42:56.924Z,68.87
2019-03-13T15:45:26.318Z,68.91
2019-03-13T15:47:55.796Z,69.24
2019-03-13T15:50:25.158Z,69.04
2019-03-13T15:52:54.665Z,68.60
2019-03-13T15:55:24.110Z,69.03
2019-03-13T15:57:53.492Z,69.94
2019-03-13T16:00:23.724Z,69.35
2019-03-13T16:02:55.643Z,68.74
2019-03-13T16:05:24.432Z,69.09
2019-03-13T16:07:53.883Z,69.31
2019-03-13T16:10:23.505Z,69.38
2019-03-13T16:12:54.738Z,69.22
2019-03-13T16:15:25.446Z,69.46
2019-03-13T16:17:54.983Z,69.67
2019-03-13T16:20:24.411Z,69.55
2019-03-13T16:22:56.658Z,69.63
2019-03-13T16:25:26.054Z,69.72
2019-03-13T16:27:55.540Z,69.80
2019-03-13T16:30:25.625Z,69.84
2019-03-13T16:32:55.059Z,70.03
2019-03-13T16:35:26.509Z,70.16
2019-03-13T16:37:55.849Z,70.74
2019-03-13T16:40:25.616Z,70.37
2019-03-13T16:42:58.745Z,70.32
2019-03-13T16:45:28.280Z,70.18
2019-03-13T16:47:57.644Z,70.50
2019-03-13T16:50:27.090Z,70.48
2019-03-13T16:52:56.574Z,70.60
2019-03-13T16:55:25.944Z,70.96
2019-03-13T16:57:55.780Z,71.33
2019-03-13T17:00:25.632Z,71.21
2019-03-13T17:02:55.403Z,71.62
2019-03-13T17:05:24.886Z,71.60
2019-03-13T17:07:54.354Z,71.67
2019-03-13T17:10:24.142Z,71.55
2019-03-13T17:12:54.066Z,71.18
2019-03-13T17:15:24.233Z,71.74
2019-03-13T17:17:53.913Z,71.46
2019-03-13T17:20:26.410Z,71.36
2019-03-13T17:22:56.351Z,71.58
2019-03-13T17:25:25.718Z,72.08
2019-03-13T17:27:55.805Z,71.84
2019-03-13T17:30:25.984Z,72.07
2019-03-13T17:32:55.939Z,71.85
2019-03-13T17:35:25.674Z,71.90
2019-03-13T17:37:55.089Z,71.33
2019-03-13T17:40:24.891Z,71.28
2019-03-13T17:42:56.062Z,71.34
2019-03-13T17:45:26.457Z,71.42
2019-03-13T17:47:56.103Z,70.65
2019-03-13T17:50:26.126Z,72.11
2019-03-13T17:52:56.079Z,71.87
2019-03-13T17:55:25.567Z,71.79
2019-03-13T17:57:55.881Z,71.45
2019-03-13T18:00:29.851Z,71.87
2019-03-13T18:03:02.795Z,71.64
2019-03-13T18:05:32.192Z,71.43
2019-03-13T18:08:01.602Z,71.80
2019-03-13T18:10:31.107Z,72.03
2019-03-13T18:13:00.761Z,71.76
2019-03-13T18:15:30.512Z,71.62
2019-03-13T18:18:00.372Z,71.87
2019-03-13T18:20:29.899Z,71.95
2019-03-13T18:22:59.329Z,72.53
2019-03-13T18:25:28.903Z,71.91
2019-03-13T18:27:58.431Z,72.28
2019-03-13T18:30:28.169Z,72.28
2019-03-13T18:32:57.766Z,72.13
2019-03-13T18:35:27.151Z,72.84
2019-03-13T18:37:56.543Z,72.53
2019-03-13T18:40:25.986Z,72.33
2019-03-13T18:42:55.613Z,72.59
2019-03-13T18:45:25.749Z,72.34
2019-03-13T18:47:55.270Z,72.56
2019-03-13T18:50:24.717Z,72.65
2019-03-13T18:52:55.049Z,72.70
2019-03-13T18:55:24.581Z,72.93
2019-03-13T18:57:54.075Z,72.85
2019-03-13T19:00:27.944Z,73.08
2019-03-13T19:02:57.334Z,72.96
2019-03-13T19:05:26.879Z,72.82
2019-03-13T19:07:56.426Z,73.11
2019-03-13T19:10:26.286Z,73.11
2019-03-13T19:12:55.909Z,73.35
2019-03-13T19:15:25.430Z,73.38
2019-03-13T19:17:54.893Z,73.21
2019-03-13T19:20:24.290Z,73.10
2019-03-13T19:22:54.150Z,72.49
2019-03-13T19:25:23.600Z,72.99
2019-03-13T19:27:53.064Z,73.07
2019-03-13T19:30:24.281Z,72.90
2019-03-13T19:32:53.765Z,72.88
2019-03-13T19:35:23.244Z,72.65
2019-03-13T19:37:52.710Z,72.46
2019-03-13T19:40:22.209Z,72.60
2019-03-13T19:42:51.808Z,72.25
2019-03-13T19:45:26.785Z,72.51
2019-03-13T19:47:56.169Z,72.58
2019-03-13T19:50:28.043Z,72.69
2019-03-13T19:52:56.635Z,72.52
2019-03-13T19:55:25.992Z,72.47
2019-03-13T19:57:55.411Z,72.52
2019-03-13T20:00:25.672Z,72.47
2019-03-13T20:03:00.422Z,72.53
2019-03-13T20:05:29.128Z,72.44
2019-03-13T20:07:58.514Z,72.24
2019-03-13T20:10:27.904Z,72.01
2019-03-13T20:12:57.438Z,72.08
2019-03-13T20:15:26.826Z,72.27
2019-03-13T20:17:56.309Z,72.06
2019-03-13T20:20:25.893Z,71.63
2019-03-13T20:22:57.358Z,71.87
2019-03-13T20:25:26.971Z,71.87
2019-03-13T20:27:56.534Z,71.89
2019-03-13T20:30:26.100Z,71.92
2019-03-13T20:32:55.491Z,72.09
2019-03-13T20:35:24.917Z,71.99
2019-03-13T20:37:54.383Z,72.14
2019-03-13T20:40:23.874Z,72.25
2019-03-13T20:42:53.491Z,71.92
2019-03-13T20:45:23.713Z,72.05
2019-03-13T20:47:53.089Z,71.87
2019-03-13T20:50:35.709Z,71.81
2019-03-13T20:52:54.254Z,71.77
2019-03-13T20:55:23.731Z,71.76
2019-03-13T20:57:53.106Z,71.61
2019-03-13T21:00:23.462Z,71.45
2019-03-13T21:02:53.064Z,71.62
2019-03-13T21:05:22.660Z,71.59
2019-03-13T21:07:52.205Z,71.85
2019-03-13T21:10:21.677Z,71.61
2019-03-13T21:12:51.116Z,71.71
2019-03-13T21:15:20.607Z,71.47
2019-03-13T21:17:50.219Z,72.03
2019-03-13T21:20:19.750Z,71.97
2019-03-13T21:22:49.283Z,71.73
2019-03-13T21:25:18.652Z,71.85
2019-03-13T21:27:48.376Z,72.03
2019-03-13T21:30:22.589Z,71.83
2019-03-13T21:32:51.959Z,71.75
2019-03-13T21:35:21.538Z,72.00
2019-03-13T21:37:50.897Z,72.01
2019-03-13T21:40:20.411Z,71.78
2019-03-13T21:42:49.884Z,72.03
2019-03-13T21:45:22.654Z,71.93
2019-03-13T21:47:50.328Z,71.70
2019-03-13T21:50:19.888Z,71.82
2019-03-13T21:52:49.354Z,71.41
2019-03-13T21:55:18.832Z,71.86
2019-03-13T21:57:51.592Z,71.66
2019-03-13T22:00:21.471Z,71.77
2019-03-13T22:02:51.084Z,71.79
2019-03-13T22:05:26.109Z,72.10
2019-03-13T22:07:52.081Z,72.00
2019-03-13T22:10:21.750Z,72.21
2019-03-13T22:12:51.100Z,72.29
2019-03-13T22:15:20.559Z,73.14
2019-03-13T22:17:49.965Z,73.28
2019-03-13T22:20:19.568Z,74.63
2019-03-13T22:22:49.419Z,74.87
2019-03-13T22:25:18.777Z,75.84
2019-03-13T22:27:48.135Z,76.57
2019-03-13T22:30:19.379Z,77.17
2019-03-13T22:32:48.859Z,77.85
2019-03-13T22:35:18.318Z,77.85
2019-03-13T22:37:47.735Z,78.61
2019-03-13T22:40:17.322Z,78.74
2019-03-13T22:42:46.943Z,79.34
2019-03-13T22:45:16.709Z,79.42
2019-03-13T22:47:46.100Z,79.94
2019-03-13T22:50:16.754Z,79.85
2019-03-13T22:52:46.153Z,80.07
2019-03-13T22:55:15.741Z,80.23
2019-03-13T22:57:45.192Z,80.36
2019-03-13T23:00:48.194Z,80.68
2019-03-13T23:03:18.027Z,81.40
2019-03-13T23:05:47.478Z,81.05
2019-03-13T23:08:17.164Z,80.97
2019-03-13T23:10:46.604Z,81.27
2019-03-13T23:13:17.431Z,81.97
2019-03-13T23:15:47.011Z,82.22
2019-03-13T23:18:18.293Z,82.38
2019-03-13T23:20:47.766Z,82.49
2019-03-13T23:23:17.114Z,82.86
2019-03-13T23:25:46.530Z,82.54
2019-03-13T23:28:15.937Z,82.34
2019-03-13T23:30:45.311Z,83.33
2019-03-13T23:33:14.691Z,83.19
2019-03-13T23:35:44.027Z,82.97
2019-03-13T23:38:13.433Z,82.97
2019-03-13T23:40:42.906Z,83.37
2019-03-13T23:43:12.298Z,83.27
2019-03-13T23:45:41.647Z,83.23
2019-03-13T23:48:11.045Z,83.15
2019-03-13T23:50:40.407Z,83.20
2019-03-13T23:53:09.811Z,82.80
2019-03-13T23:55:39.224Z,82.54
2019-03-13T23:58:11.360Z,82.45
